Platzwetter Flugplatz Wels

Flugwetter Linz LOWL

[Quelle: ADDS]
METAR
LOWL 072250Z AUTO 24008KT 9999 SCT050 04/03 Q1021 =
LOWL 071715Z 0718/0818 27012KT 9999 SCT040 TX16/0815Z TN02/0803Z BECMG 0723/0801 29004KT
TAF
LOWL 071715Z 0718/0818 27012KT 9999 SCT040 TX16/0815Z TN02/0803Z BECMG 0723/0801 29004KT =

Flugwetter Salzburg LOWS

[Quelle: ADDS]
METAR
LOWS 072250Z AUTO 36005KT 9999 FEW048 05/02 Q1021 =
LOWS 071715Z 0718/0818 23005KT 9999 FEW040 SCT060 BKN080 TX17/0814ZTN02/0804Z TEMPO 0718/0720 30012KT -SHRA BECMG 0720/0722 15005KT BECMG 0722/0724 CAVOK BECMG 0807/0809 34005KT 9999 FEW050
TAF
LOWS 071715Z 0718/0818 23005KT 9999 FEW040 SCT060 BKN080 TX17/0814ZTN02/0804Z TEMPO 0718/0720 30012KT -SHRA BECMG 0720/0722 15005KT BECMG 0722/0724 CAVOK BECMG 0807/0809 34005KT 9999 FEW050 =

Wind - Verlauf

Windrichtung - Verlauf

Temperatur - Verlauf

Relative Luftfeuchtigkeit - Verlauf

Luftdruck - Verlauf

Cookies erleichtern die Bereitstellung unserer Dienste. Mit der Nutzung unserer Dienste erklären Sie sich damit einverstanden, dass wir Cookies verwenden.
Weitere Informationen Ok